Time;durP1;ratioP1;P1;durP2;ratioP2;P2;SDS_P1;SDS_P2;PMS_P1;PMS_P2;Temp;Humidity;BMP_temperature;BMP_pressure;BME280_temperature;BME280_humidity;BME280_pressure;Samples;Min_cycle;Max_cycle;Signal;HPM_P1;HPM_P2
2023/10/21 00:00:51;;;;;;;;;;;;;;;15.57;62.89;98304.63;4919466;28;119311;-63
2023/10/21 00:03:18;;;;;;;;;;;;;;;15.57;62.77;98304.63;4925430;28;119931;-63
2023/10/21 00:05:45;;;;;;;;;;;;;;;15.57;62.87;98309.97;4930801;28;123376;-63
2023/10/21 00:08:12;;;;;;;;;;;;;;;15.56;62.86;98308.31;4930681;28;123980;-63
2023/10/21 00:10:39;;;;;;;;;;;;;;;15.57;62.68;98315.31;4926105;28;119495;-63
2023/10/21 00:13:06;;;;;;;;;;;;;;;15.55;62.72;98317.31;4922893;28;118632;-63
2023/10/21 00:15:34;;;;;;;;;;;;;;;15.53;62.63;98321.97;4929976;28;125054;-63
2023/10/21 00:18:01;;;;;;;;;;;;;;;15.52;62.76;98330.94;4930276;28;124112;-63
2023/10/21 00:20:28;;;;;;;;;;;;;;;15.50;62.88;98335.63;4929200;28;119698;-63
2023/10/21 00:22:55;;;;;;;;;;;;;;;15.49;62.78;98339.31;4931590;28;120832;-63
2023/10/21 00:25:23;;;;;;;;;;;;;;;15.48;62.87;98345.63;4931112;28;125307;-63
2023/10/21 00:27:50;;;;;;;;;;;;;;;15.47;62.57;98346.63;4929845;28;125004;-63
2023/10/21 00:30:17;;;;;;;;;;;;;;;15.47;62.81;98346.63;4929366;28;119607;-63
2023/10/21 00:32:44;;;;;;;;;;;;;;;15.47;62.89;98351.97;4929464;28;119094;-63
2023/10/21 00:35:12;;;;;;;;;;;;;;;15.45;62.72;98348.63;4933888;28;124110;-63
2023/10/21 00:37:39;;;;;;;;;;;;;;;15.45;62.87;98353.97;4923522;28;125026;-62
2023/10/21 00:40:06;;;;;;;;;;;;;;;15.46;62.76;98358.28;4929783;28;119447;-62
2023/10/21 00:42:33;;;;;;;;;;;;;;;15.45;62.79;98364.63;4929312;28;118619;-62
2023/10/21 00:45:03;;;;;;;;;;;;;;;15.44;62.86;98373.63;4930239;28;125259;-63
2023/10/21 00:47:31;;;;;;;;;;;;;;;15.43;62.67;98371.97;4929430;28;124439;-62
2023/10/21 00:49:58;;;;;;;;;;;;;;;15.43;62.71;98371.97;4930904;28;120583;-62
2023/10/21 00:52:25;;;;;;;;;;;;;;;15.44;62.81;98373.63;4929304;28;117618;-62
2023/10/21 00:54:53;;;;;;;;;;;;;;;15.42;62.73;98380.94;4928605;28;125621;-62
2023/10/21 00:57:20;;;;;;;;;;;;;;;15.41;62.89;98395.28;4930646;28;123082;-62
2023/10/21 00:59:47;;;;;;;;;;;;;;;15.41;62.84;98395.28;4928386;28;120121;-62
2023/10/21 01:02:16;;;;;;;;;;;;;;;15.42;62.96;98402.28;4930072;28;119025;-62
2023/10/21 01:04:43;;;;;;;;;;;;;;;15.41;62.82;98400.59;4929211;28;123155;-63
2023/10/21 01:07:16;;;;;;;;;;;;;;;15.42;62.89;98402.28;4927604;28;122783;-63
2023/10/21 01:09:44;;;;;;;;;;;;;;;15.42;62.97;98407.63;4929625;28;118347;-62
2023/10/21 01:12:11;;;;;;;;;;;;;;;15.43;62.82;98406.66;4928578;28;118220;-62
2023/10/21 01:14:38;;;;;;;;;;;;;;;15.44;62.73;98411.78;4928506;28;125445;-62
2023/10/21 01:17:05;;;;;;;;;;;;;;;15.45;63.03;98415.31;4943996;28;124353;-62
2023/10/21 01:19:33;;;;;;;;;;;;;;;15.48;63.07;98422.97;4921907;28;118849;-62
2023/10/21 01:22:01;;;;;;;;;;;;;;;15.48;62.96;98413.16;4924940;28;117731;-62
2023/10/21 01:24:28;;;;;;;;;;;;;;;15.51;62.75;98417.34;4932330;28;124450;-62
2023/10/21 01:26:55;;;;;;;;;;;;;;;15.52;62.89;98413.66;4932547;28;125049;-62
2023/10/21 01:29:22;;;;;;;;;;;;;;;15.54;62.94;98417.84;4929602;28;121908;-62
2023/10/21 01:31:49;;;;;;;;;;;;;;;15.56;62.93;98423.03;4944286;28;118729;-62
2023/10/21 01:34:16;;;;;;;;;;;;;;;15.57;62.87;98424.69;4927898;28;124247;-62
2023/10/21 01:36:43;;;;;;;;;;;;;;;15.58;62.95;98439.72;4925274;28;123115;-62
2023/10/21 01:39:12;;;;;;;;;;;;;;;15.61;62.91;98427.88;4929815;28;119950;-62
2023/10/21 01:41:39;;;;;;;;;;;;;;;15.63;62.96;98426.69;4928717;28;118460;-62
2023/10/21 01:44:07;;;;;;;;;;;;;;;15.65;62.70;98430.06;4928811;28;124090;-62
2023/10/21 01:46:35;;;;;;;;;;;;;;;15.66;62.71;98431.72;4930955;28;124004;-63
2023/10/21 01:49:03;;;;;;;;;;;;;;;15.66;62.90;98439.75;4923141;28;118565;-62
2023/10/21 01:51:30;;;;;;;;;;;;;;;15.68;62.80;98429.72;4912890;28;117914;-63
2023/10/21 01:53:58;;;;;;;;;;;;;;;15.69;62.74;98431.41;4912973;28;124155;-62
2023/10/21 01:56:25;;;;;;;;;;;;;;;15.68;62.83;98435.06;4919896;28;124262;-62
2023/10/21 01:58:52;;;;;;;;;;;;;;;15.69;62.71;98434.09;4940316;28;118436;-62
2023/10/21 02:01:19;;;;;;;;;;;;;;;15.67;62.64;98433.41;4919576;28;118947;-62
2023/10/21 02:03:46;;;;;;;;;;;;;;;15.68;62.80;98437.75;4911788;28;123133;-62
2023/10/21 02:06:14;;;;;;;;;;;;;;;15.68;62.79;98440.41;4932396;28;124511;-62
2023/10/21 02:08:41;;;;;;;;;;;;;;;15.68;62.72;98440.41;4911381;28;119572;-62
2023/10/21 02:11:08;;;;;;;;;;;;;;;15.70;62.71;98448.25;4921469;28;118950;-62
2023/10/21 02:13:35;;;;;;;;;;;;;;;15.71;62.89;98456.09;4925332;28;123334;-62
2023/10/21 02:16:08;;;;;;;;;;;;;;;15.71;62.75;98456.09;4919900;28;123049;-63
2023/10/21 02:18:36;;;;;;;;;;;;;;;15.73;62.74;98453.28;4927754;28;119305;-63
2023/10/21 02:21:06;;;;;;;;;;;;;;;15.72;62.82;98456.94;4940366;28;118717;-63
2023/10/21 02:23:34;;;;;;;;;;;;;;;15.73;62.94;98464.81;4934596;28;123230;-63
2023/10/21 02:26:03;;;;;;;;;;;;;;;15.73;62.79;98459.47;4935739;28;123063;-63
2023/10/21 02:28:30;;;;;;;;;;;;;;;15.74;62.84;98466.47;4912519;28;119913;-63
2023/10/21 02:31:01;;;;;;;;;;;;;;;15.75;62.93;98468.16;4935087;28;118112;-63
2023/10/21 02:33:28;;;;;;;;;;;;;;;15.76;62.87;98475.19;4921254;28;124013;-63
2023/10/21 02:35:55;;;;;;;;;;;;;;;15.79;62.83;98478.53;4925443;28;124227;-63
2023/10/21 02:38:22;;;;;;;;;;;;;;;15.81;62.89;98476.53;4942102;28;118738;-63
2023/10/21 02:40:51;;;;;;;;;;;;;;;15.82;62.70;98475.50;4927959;28;117941;-63
2023/10/21 02:43:18;;;;;;;;;;;;;;;15.84;62.89;98482.38;4912047;28;123054;-63
2023/10/21 02:45:45;;;;;;;;;;;;;;;15.87;62.86;98491.91;4927554;28;124470;-63
2023/10/21 02:48:12;;;;;;;;;;;;;;;15.89;62.73;98495.25;4929098;28;119668;-63
2023/10/21 02:50:40;;;;;;;;;;;;;;;15.91;62.82;98498.56;4922555;28;117187;-63
2023/10/21 02:53:08;;;;;;;;;;;;;;;15.93;62.67;98494.75;4928041;28;123770;-63
2023/10/21 02:55:36;;;;;;;;;;;;;;;15.95;62.78;98502.59;4927995;28;122769;-63
2023/10/21 02:58:04;;;;;;;;;;;;;;;15.98;62.91;98510.28;4927525;28;119702;-63
2023/10/21 03:00:31;;;;;;;;;;;;;;;16.02;63.01;98506.28;4926637;28;117774;-63
2023/10/21 03:02:59;;;;;;;;;;;;;;;16.04;62.96;98509.63;4927792;28;124158;-63
2023/10/21 03:05:26;;;;;;;;;;;;;;;16.06;62.88;98512.97;4926600;28;123098;-63
2023/10/21 03:07:53;;;;;;;;;;;;;;;16.10;62.89;98516.16;4928341;28;120660;-62
2023/10/21 03:10:22;;;;;;;;;;;;;;;16.11;62.98;98510.66;4925439;28;118919;-63
2023/10/21 03:12:49;;;;;;;;;;;;;;;16.14;62.90;98515.69;4926946;28;123366;-63
2023/10/21 03:15:17;;;;;;;;;;;;;;;16.19;63.04;98517.03;4942759;28;122962;-63
2023/10/21 03:17:44;;;;;;;;;;;;;;;16.22;62.87;98522.03;4927861;28;118454;-63
2023/10/21 03:20:11;;;;;;;;;;;;;;;16.25;62.96;98516.38;4927515;28;119267;-63
2023/10/21 03:22:38;;;;;;;;;;;;;;;16.28;62.90;98521.41;4924046;28;122914;-62
2023/10/21 03:25:06;;;;;;;;;;;;;;;16.32;62.87;98528.09;4927667;28;122958;-63
2023/10/21 03:27:34;;;;;;;;;;;;;;;16.35;63.01;98538.47;4926861;28;118836;-63
2023/10/21 03:30:01;;;;;;;;;;;;;;;16.38;62.82;98537.28;4927571;28;117616;-63
2023/10/21 03:32:28;;;;;;;;;;;;;;;16.38;62.88;98543.47;4924774;28;123335;-63
2023/10/21 03:34:55;;;;;;;;;;;;;;;16.38;62.97;98547.97;4931273;28;125059;-63
2023/10/21 03:37:23;;;;;;;;;;;;;;;16.40;62.95;98552.16;4920726;28;118612;-63
2023/10/21 03:39:50;;;;;;;;;;;;;;;16.42;62.78;98552.81;4927046;28;118995;-63
2023/10/21 03:42:17;;;;;;;;;;;;;;;16.42;62.87;98555.47;4926026;28;124060;-63
2023/10/21 03:44:44;;;;;;;;;;;;;;;16.43;62.73;98562.50;4927203;28;123075;-63
2023/10/21 03:47:11;;;;;;;;;;;;;;;16.44;62.91;98558.81;4930830;28;119529;-63
2023/10/21 03:49:38;;;;;;;;;;;;;;;16.44;62.91;98558.81;4935902;28;117900;-63
2023/10/21 03:52:06;;;;;;;;;;;;;;;16.45;62.78;98571.19;4930090;28;123868;-63
2023/10/21 03:54:33;;;;;;;;;;;;;;;16.44;62.68;98569.50;4931230;28;123086;-63
2023/10/21 03:57:00;;;;;;;;;;;;;;;16.44;62.76;98569.50;4928791;28;120592;-63
2023/10/21 03:59:27;;;;;;;;;;;;;;;16.44;62.72;98574.03;4929161;28;119748;-63
2023/10/21 04:01:55;;;;;;;;;;;;;;;16.42;62.72;98576.84;4929219;28;123276;-63
2023/10/21 04:04:22;;;;;;;;;;;;;;;16.42;62.87;98581.38;4929636;28;124453;-63
2023/10/21 04:06:49;;;;;;;;;;;;;;;16.42;62.89;98582.19;4929658;28;119916;-63
2023/10/21 04:09:17;;;;;;;;;;;;;;;16.42;62.85;98582.19;4929958;28;119560;-63
2023/10/21 04:11:44;;;;;;;;;;;;;;;16.43;62.74;98594.56;4944556;28;123280;-63
2023/10/21 04:14:12;;;;;;;;;;;;;;;16.44;62.97;98596.22;4931629;28;125501;-63
2023/10/21 04:16:44;;;;;;;;;;;;;;;16.46;62.96;98610.28;4932450;28;119282;-63
2023/10/21 04:19:11;;;;;;;;;;;;;;;16.46;62.83;98618.31;4924507;28;119576;-63
2023/10/21 04:21:39;;;;;;;;;;;;;;;16.47;62.92;98617.28;4925823;28;124451;-63
2023/10/21 04:24:06;;;;;;;;;;;;;;;16.48;62.76;98629.66;4927766;28;124046;-63
2023/10/21 04:26:34;;;;;;;;;;;;;;;16.47;62.73;98627.97;4921624;28;119606;-62
2023/10/21 04:29:01;;;;;;;;;;;;;;;16.47;62.75;98627.16;4925088;28;118892;-62
2023/10/21 04:31:32;;;;;;;;;;;;;;;16.47;62.97;98644.00;4918842;28;124707;-62
2023/10/21 04:33:59;;;;;;;;;;;;;;;16.48;62.82;98655.53;4922981;28;124589;-63
2023/10/21 04:36:26;;;;;;;;;;;;;;;16.47;62.75;98654.69;4929062;28;119336;-63
2023/10/21 04:38:53;;;;;;;;;;;;;;;16.47;63.10;98648.53;4931242;28;119046;-62
2023/10/21 04:41:20;;;;;;;;;;;;;;;16.46;62.84;98653.03;4929826;28;124488;-63
2023/10/21 04:43:48;;;;;;;;;;;;;;;16.48;62.86;98661.72;4931276;28;124346;-63
2023/10/21 04:46:15;;;;;;;;;;;;;;;16.48;62.79;98664.41;4927523;28;120590;-63
2023/10/21 04:48:42;;;;;;;;;;;;;;;16.51;62.72;98661.41;4928868;28;119596;-62
2023/10/21 04:51:09;;;;;;;;;;;;;;;16.51;62.90;98672.09;4927848;28;123724;-63
2023/10/21 04:53:37;;;;;;;;;;;;;;;16.51;62.84;98661.41;4912181;28;123006;-63
2023/10/21 04:56:06;;;;;;;;;;;;;;;16.51;62.95;98672.09;4929930;28;98128;-63
2023/10/21 04:58:34;;;;;;;;;;;;;;;16.53;62.93;98679.94;4926056;28;118719;-63
2023/10/21 05:01:02;;;;;;;;;;;;;;;16.54;62.90;98666.44;4928388;28;124397;-62
2023/10/21 05:03:30;;;;;;;;;;;;;;;16.55;62.94;98684.13;4929249;28;124309;-63
2023/10/21 05:05:57;;;;;;;;;;;;;;;16.58;63.00;98676.81;4929944;28;119701;-62
2023/10/21 05:08:24;;;;;;;;;;;;;;;16.60;62.92;98672.13;4929336;28;118699;-62
2023/10/21 05:10:52;;;;;;;;;;;;;;;16.63;62.97;98682.47;4926919;28;124765;-63
2023/10/21 05:13:19;;;;;;;;;;;;;;;16.65;62.97;98685.84;4911140;28;122847;-63
2023/10/21 05:15:46;;;;;;;;;;;;;;;16.68;63.01;98690.88;4929836;28;118827;-63
2023/10/21 05:18:13;;;;;;;;;;;;;;;16.69;63.00;98689.88;4929802;28;118721;-63
2023/10/21 05:20:40;;;;;;;;;;;;;;;16.72;62.89;98700.22;4929208;28;124337;-63
2023/10/21 05:23:08;;;;;;;;;;;;;;;16.74;62.85;98698.22;4927153;28;124301;-63
2023/10/21 05:25:35;;;;;;;;;;;;;;;16.74;62.88;98706.25;4936635;28;118550;-63
2023/10/21 05:28:02;;;;;;;;;;;;;;;16.77;62.99;98711.28;4929605;28;118875;-63
2023/10/21 05:30:29;;;;;;;;;;;;;;;16.77;62.98;98708.59;4926853;28;125462;-63
2023/10/21 05:32:56;;;;;;;;;;;;;;;16.78;62.84;98714.78;4925641;28;124845;-63
2023/10/21 05:35:24;;;;;;;;;;;;;;;16.77;62.89;98724.66;4929552;28;119144;-63
2023/10/21 05:37:52;;;;;;;;;;;;;;;16.77;62.84;98730.00;4929475;28;121456;-63
2023/10/21 05:40:19;;;;;;;;;;;;;;;16.77;62.84;98729.16;4927653;28;123666;-63
2023/10/21 05:42:46;;;;;;;;;;;;;;;16.76;62.83;98739.00;4943184;28;122935;-63
2023/10/21 05:45:14;;;;;;;;;;;;;;;16.74;63.04;98735.66;4928208;28;118975;-63
2023/10/21 05:47:41;;;;;;;;;;;;;;;16.74;62.82;98751.69;4913040;28;117615;-63
2023/10/21 05:50:12;;;;;;;;;;;;;;;16.72;62.71;98759.03;4927939;28;124949;-63
2023/10/21 05:52:39;;;;;;;;;;;;;;;16.70;62.72;98767.22;4923421;28;123417;-63
2023/10/21 05:55:06;;;;;;;;;;;;;;;16.69;62.84;98764.72;4928701;28;119734;-63
2023/10/21 05:57:33;;;;;;;;;;;;;;;16.66;62.90;98775.72;4928359;28;118774;-63
2023/10/21 06:00:00;;;;;;;;;;;;;;;16.63;62.74;98776.88;4928483;28;124446;-62
2023/10/21 06:02:30;;;;;;;;;;;;;;;16.63;62.85;98781.38;4929016;28;124902;-63
2023/10/21 06:04:57;;;;;;;;;;;;;;;16.61;62.92;98783.38;4928208;28;119388;-63
2023/10/21 06:07:24;;;;;;;;;;;;;;;16.61;62.92;98794.06;4917814;28;118991;-62
2023/10/21 06:09:53;;;;;;;;;;;;;;;16.61;62.79;98794.06;4926294;28;124911;-62
2023/10/21 06:12:21;;;;;;;;;;;;;;;16.61;62.87;98794.06;4927335;28;124501;-63
2023/10/21 06:14:48;;;;;;;;;;;;;;;16.60;62.77;98797.75;4927226;28;119375;-63
2023/10/21 06:17:15;;;;;;;;;;;;;;;16.61;62.97;98799.41;4927192;28;119215;-62
2023/10/21 06:19:45;;;;;;;;;;;;;;;16.63;62.99;98806.28;4927538;28;123824;-62
2023/10/21 06:22:13;;;;;;;;;;;;;;;16.63;62.81;98808.09;4925185;28;123219;-63
2023/10/21 06:24:40;;;;;;;;;;;;;;;16.66;62.82;98813.13;4928047;28;120079;-63
2023/10/21 06:27:07;;;;;;;;;;;;;;;16.67;62.98;98820.16;4927529;28;119496;-63
2023/10/21 06:29:35;;;;;;;;;;;;;;;16.68;63.07;98821.84;4909043;28;123992;-63
2023/10/21 06:32:04;;;;;;;;;;;;;;;16.68;62.94;98819.16;4910720;28;124177;-62
2023/10/21 06:34:31;;;;;;;;;;;;;;;16.69;63.08;98828.88;4920293;28;120319;-63
2023/10/21 06:36:58;;;;;;;;;;;;;;;16.72;62.83;98844.56;4916452;28;118918;-63
2023/10/21 06:39:25;;;;;;;;;;;;;;;16.73;63.02;98840.91;4920631;28;124493;-63
2023/10/21 06:41:52;;;;;;;;;;;;;;;16.75;62.99;98846.94;4910117;28;123948;-62
2023/10/21 06:44:21;;;;;;;;;;;;;;;16.78;63.17;98845.78;4914169;28;119159;-62
2023/10/21 06:46:49;;;;;;;;;;;;;;;16.81;63.14;98854.31;4940360;28;117938;-63
2023/10/21 06:49:16;;;;;;;;;;;;;;;16.83;62.94;98863.06;4918278;28;125457;-63
2023/10/21 06:51:43;;;;;;;;;;;;;;;16.86;63.17;98870.78;4926005;28;124212;-63
2023/10/21 06:54:10;;;;;;;;;;;;;;;16.87;63.04;98875.09;4921465;28;119594;-63
2023/10/21 06:56:38;;;;;;;;;;;;;;;16.88;63.03;98871.44;4924464;28;119351;-62
2023/10/21 06:59:04;;;;;;;;;;;;;;;16.91;63.07;98876.50;4927054;28;124724;-63
2023/10/21 07:01:32;;;;;;;;;;;;;;;16.93;63.18;98879.84;4931984;28;123857;-63
2023/10/21 07:03:59;;;;;;;;;;;;;;;16.98;63.30;98892.72;4917079;28;118885;-63
2023/10/21 07:06:27;;;;;;;;;;;;;;;17.02;63.31;98890.56;4926881;28;118518;-63
2023/10/21 07:08:54;;;;;;;;;;;;;;;17.05;63.07;98898.28;4927207;28;124142;-63
2023/10/21 07:11:21;;;;;;;;;;;;;;;17.07;63.19;98897.13;4920793;28;124261;-63
2023/10/21 07:13:50;;;;;;;;;;;;;;;17.10;63.04;98898.63;4922305;28;120066;-63
2023/10/21 07:16:17;;;;;;;;;;;;;;;17.13;63.23;98907.19;4921624;28;119273;-63
2023/10/21 07:18:44;;;;;;;;;;;;;;;17.16;63.07;98919.44;4934315;28;123359;-63
2023/10/21 07:21:11;;;;;;;;;;;;;;;17.19;63.17;98921.75;4942965;28;123486;-63
2023/10/21 07:23:38;;;;;;;;;;;;;;;17.22;63.26;98931.31;4928211;28;119725;-64
2023/10/21 07:26:06;;;;;;;;;;;;;;;17.24;63.10;98930.16;4927874;28;118842;-63
2023/10/21 07:28:33;;;;;;;;;;;;;;;17.26;63.20;98938.88;4926628;28;124163;-63
2023/10/21 07:31:01;;;;;;;;;;;;;;;17.29;63.25;98954.59;4940934;28;123097;-63
2023/10/21 07:33:28;;;;;;;;;;;;;;;17.33;63.16;98960.50;4932775;28;119130;-63
2023/10/21 07:35:55;;;;;;;;;;;;;;;17.36;63.07;98962.00;4921442;28;119588;-64
2023/10/21 07:38:23;;;;;;;;;;;;;;;17.39;63.31;98975.06;4911765;28;123777;-63
2023/10/21 07:40:50;;;;;;;;;;;;;;;17.41;63.26;98973.06;4924870;28;125543;-63
2023/10/21 07:43:18;;;;;;;;;;;;;;;17.43;63.21;98981.78;4926576;28;119417;-63
2023/10/21 07:45:46;;;;;;;;;;;;;;;17.44;63.11;98984.28;4920523;28;119369;-63
2023/10/21 07:48:14;;;;;;;;;;;;;;;17.44;63.16;98994.13;4923478;28;124175;-63
2023/10/21 07:50:42;;;;;;;;;;;;;;;17.42;63.17;99013.06;4929585;28;123614;-63
2023/10/21 07:53:09;;;;;;;;;;;;;;;17.41;63.19;99022.06;4936220;28;117852;-64
2023/10/21 07:55:36;;;;;;;;;;;;;;;17.41;63.15;99029.28;4925198;28;118288;-64
2023/10/21 07:58:03;;;;;;;;;;;;;;;17.39;63.04;99028.59;4928237;28;124579;-64
2023/10/21 08:00:30;;;;;;;;;;;;;;;17.38;63.20;99043.78;4926385;28;124930;-64
2023/10/21 08:02:58;;;;;;;;;;;;;;;17.37;62.97;99042.13;4927124;28;121088;-64
2023/10/21 08:05:38;;;;;;;;;;;;;;;17.35;63.04;99043.25;4940217;28;121302;-63
2023/10/21 08:08:05;;;;;;;;;;;;;;;17.32;63.00;99045.25;4920957;28;124130;-64
2023/10/21 08:10:33;;;;;;;;;;;;;;;17.31;62.80;99059.66;4925985;28;123782;-63
2023/10/21 08:13:00;;;;;;;;;;;;;;;17.30;63.18;99052.59;4921562;28;119934;-64
2023/10/21 08:15:29;;;;;;;;;;;;;;;17.31;63.30;99070.34;4930404;28;118687;-63
2023/10/21 08:17:56;;;;;;;;;;;;;;;17.34;63.25;99073.69;4932284;28;124259;-63
2023/10/21 08:20:26;;;;;;;;;;;;;;;17.37;63.20;99065.38;4932011;28;125012;-63
2023/10/21 08:22:53;;;;;;;;;;;;;;;17.40;63.18;99073.06;4928832;28;120384;-63
2023/10/21 08:25:20;;;;;;;;;;;;;;;17.43;63.42;99083.47;4928817;28;118856;-64
2023/10/21 08:27:47;;;;;;;;;;;;;;;17.46;63.23;99084.00;4928723;28;124814;-63
2023/10/21 08:30:15;;;;;;;;;;;;;;;17.50;63.23;99084.53;4919668;28;123889;-64
2023/10/21 08:32:42;;;;;;;;;;;;;;;17.51;62.98;99091.56;4911234;28;119559;-63
2023/10/21 08:35:14;;;;;;;;;;;;;;;17.53;62.97;99089.56;4920311;28;119384;-63
2023/10/21 08:37:41;;;;;;;;;;;;;;;17.54;63.25;99101.97;4925625;28;125101;-64
2023/10/21 08:40:10;;;;;;;;;;;;;;;17.57;63.17;99090.91;4928689;28;124526;-64
2023/10/21 08:42:37;;;;;;;;;;;;;;;17.59;63.19;99099.63;4925276;28;119658;-64
2023/10/21 08:45:24;;;;;;;;;;;;;;;17.64;63.01;99113.38;4927444;28;118588;-64
2023/10/21 08:47:53;;;;;;;;;;;;;;;17.67;63.11;99107.72;4919592;28;124356;-64
2023/10/21 08:50:20;;;;;;;;;;;;;;;17.70;63.12;99118.09;4927654;28;124577;-64
2023/10/21 08:52:49;;;;;;;;;;;;;;;17.73;62.96;99121.50;4930392;28;120242;-63
2023/10/21 08:55:18;;;;;;;;;;;;;;;17.76;63.01;99122.00;4930619;28;119196;-63
2023/10/21 08:57:48;;;;;;;;;;;;;;;17.82;63.12;99120.50;4919130;28;124655;-64
2023/10/21 09:00:15;;;;;;;;;;;;;;;17.85;62.97;99130.97;4925691;28;124602;-63
2023/10/21 09:02:44;;;;;;;;;;;;;;;17.88;62.91;99131.47;4927826;28;119866;-64
2023/10/21 09:05:12;;;;;;;;;;;;;;;17.92;62.92;99148.09;4929106;28;119183;-64
2023/10/21 09:07:49;;;;;;;;;;;;;;;17.93;62.78;99149.75;4926520;28;125067;-63
2023/10/21 09:10:17;;;;;;;;;;;;;;;17.95;62.92;99150.47;4939554;28;123612;-63
2023/10/21 09:12:45;;;;;;;;;;;;;;;17.99;62.81;99149.13;4926305;28;119775;-65
2023/10/21 09:15:12;;;;;;;;;;;;;;;18.02;62.79;99154.16;4928794;28;118673;-63
2023/10/21 09:17:45;;;;;;;;;;;;;;;18.03;62.65;99166.56;4918472;28;124010;-63
2023/10/21 09:20:14;;;;;;;;;;;;;;;18.03;62.60;99155.84;4929238;28;124574;-63
2023/10/21 09:22:43;;;;;;;;;;;;;;;18.03;62.57;99166.56;4927725;28;118396;-63
2023/10/21 09:25:14;;;;;;;;;;;;;;;18.02;62.33;99164.88;4937094;28;117828;-63
2023/10/21 09:27:58;;;;;;;;;;;;;;;18.01;62.35;99168.56;4927418;28;124392;-63
2023/10/21 09:30:26;;;;;;;;;;;;;;;18.04;62.50;99173.59;4928029;28;123555;-63
2023/10/21 09:33:03;;;;;;;;;;;;;;;18.11;62.66;99178.34;4922037;28;119762;-64
2023/10/21 09:35:32;;;;;;;;;;;;;;;18.17;62.67;99191.91;4913196;28;118539;-64
2023/10/21 09:38:16;;;;;;;;;;;;;;;18.21;62.43;99185.25;4919166;28;123584;-64
2023/10/21 09:40:44;;;;;;;;;;;;;;;18.24;62.39;99189.47;4911191;28;124322;-63
2023/10/21 09:43:11;;;;;;;;;;;;;;;18.28;62.41;99206.91;4925554;28;119404;-63
2023/10/21 09:45:45;;;;;;;;;;;;;;;18.32;62.36;99200.22;4928057;28;118764;-63
2023/10/21 09:48:12;;;;;;;;;;;;;;;18.39;62.39;99203.94;4920533;28;123759;-63
2023/10/21 09:50:44;;;;;;;;;;;;;;;18.45;62.52;99197.94;4920326;28;123740;-63
2023/10/21 09:53:12;;;;;;;;;;;;;;;18.49;62.43;99215.38;4919371;28;119687;-63
2023/10/21 09:55:40;;;;;;;;;;;;;;;18.55;62.40;99213.06;4920706;28;119542;-65
2023/10/21 09:58:08;;;;;;;;;;;;;;;18.59;62.22;99209.03;4922382;28;124823;-63
2023/10/21 10:00:35;;;;;;;;;;;;;;;18.65;62.37;99213.78;4927637;28;124970;-63
2023/10/21 10:03:05;;;;;;;;;;;;;;;18.72;62.21;99217.47;4928251;28;118347;-63
2023/10/21 10:05:37;;;;;;;;;;;;;;;18.76;62.23;99216.19;4945721;28;117930;-63
2023/10/21 10:08:05;;;;;;;;;;;;;;;18.83;62.16;99217.22;4930055;28;124399;-63
2023/10/21 10:10:34;;;;;;;;;;;;;;;18.91;62.23;99224.47;4923743;28;126494;-63
2023/10/21 10:13:06;;;;;;;;;;;;;;;18.98;62.16;99214.75;4921243;28;119456;-63
2023/10/21 10:15:37;;;;;;;;;;;;;;;19.04;62.08;99226.69;4929028;28;118828;-63
2023/10/21 10:18:06;;;;;;;;;;;;;;;19.10;62.03;99228.72;4913029;28;125188;-63
2023/10/21 10:20:34;;;;;;;;;;;;;;;19.17;61.89;99239.63;4932075;28;125158;-62
2023/10/21 10:23:01;;;;;;;;;;;;;;;19.20;61.94;99234.78;4925094;28;119633;-62
2023/10/21 10:25:32;;;;;;;;;;;;;;;19.22;61.52;99243.50;4932559;28;118650;-66
2023/10/21 10:28:05;;;;;;;;;;;;;;;19.23;61.49;99244.34;4927650;28;124699;-62
2023/10/21 10:30:32;;;;;;;;;;;;;;;19.24;61.57;99241.50;4919931;28;123672;-63
2023/10/21 10:33:12;;;;;;;;;;;;;;;19.31;61.60;99246.19;4929131;28;121904;-63
2023/10/21 10:35:43;;;;;;;;;;;;;;;19.34;61.30;99252.06;4933734;28;118286;-62
2023/10/21 10:38:26;;;;;;;;;;;;;;;19.35;61.30;99258.31;4923594;28;124544;-62
2023/10/21 10:41:11;;;;;;;;;;;;;;;19.40;61.45;99266.69;4922910;28;123393;-63
2023/10/21 10:43:39;;;;;;;;;;;;;;;19.43;61.41;99266.38;4920195;28;119625;-62
2023/10/21 10:46:07;;;;;;;;;;;;;;;19.43;61.20;99263.69;4924320;28;119355;-63
2023/10/21 10:48:34;;;;;;;;;;;;;;;19.43;61.11;99264.50;4924635;28;125238;-63
2023/10/21 10:51:10;;;;;;;;;;;;;;;19.43;61.07;99255.63;4926912;28;123951;-63
2023/10/21 10:53:39;;;;;;;;;;;;;;;19.48;61.23;99264.03;4927722;28;119344;-63
2023/10/21 10:56:14;;;;;;;;;;;;;;;19.55;61.18;99270.44;4926747;28;119048;-64
2023/10/21 10:58:45;;;;;;;;;;;;;;;19.60;61.05;99267.22;4944453;28;124488;-62
2023/10/21 11:01:26;;;;;;;;;;;;;;;19.63;60.81;99277.66;4926944;28;124450;-63
2023/10/21 11:03:55;;;;;;;;;;;;;;;19.62;60.80;99271.41;4939359;28;119725;-63
2023/10/21 11:06:23;;;;;;;;;;;;;;;19.65;60.79;99281.00;4927087;28;118659;-62
2023/10/21 11:08:52;;;;;;;;;;;;;;;19.73;60.95;99277.53;4930830;28;122634;-63
2023/10/21 11:11:19;;;;;;;;;;;;;;;19.79;60.81;99271.47;4924322;28;124656;-62
2023/10/21 11:13:46;;;;;;;;;;;;;;;19.82;60.72;99281.91;4922122;28;120278;-62
2023/10/21 11:16:14;;;;;;;;;;;;;;;19.86;60.58;99277.84;4928362;28;118765;-62
2023/10/21 11:18:41;;;;;;;;;;;;;;;19.89;60.54;99279.34;4929489;28;124699;-62
2023/10/21 11:21:09;;;;;;;;;;;;;;;19.92;60.40;99277.19;4920535;28;124319;-62
2023/10/21 11:23:36;;;;;;;;;;;;;;;19.95;60.30;99276.03;4924657;28;120602;-62
2023/10/21 11:26:07;;;;;;;;;;;;;;;19.98;60.33;99276.50;4927014;28;119600;-62
2023/10/21 11:28:36;;;;;;;;;;;;;;;20.01;60.28;99276.16;4929693;28;124241;-62
2023/10/21 11:31:03;;;;;;;;;;;;;;;20.05;60.25;99281.22;4925104;28;124144;-62
2023/10/21 11:33:32;;;;;;;;;;;;;;;20.10;60.31;99284.22;4927362;28;121190;-62
2023/10/21 11:36:02;;;;;;;;;;;;;;;20.16;60.26;99287.09;4928244;28;117914;-63
2023/10/21 11:38:30;;;;;;;;;;;;;;;20.21;60.15;99287.44;4926081;28;124664;-62
2023/10/21 11:40:59;;;;;;;;;;;;;;;20.26;60.07;99289.59;4939284;28;124135;-63
2023/10/21 11:43:27;;;;;;;;;;;;;;;20.30;60.06;99285.53;4925565;28;118324;-63
2023/10/21 11:45:55;;;;;;;;;;;;;;;20.36;60.03;99292.09;4931109;28;118953;-63
2023/10/21 11:48:24;;;;;;;;;;;;;;;20.43;59.87;99302.00;4931325;28;124099;-62
2023/10/21 11:50:51;;;;;;;;;;;;;;;20.52;59.94;99293.94;4922585;28;124499;-62
2023/10/21 11:53:19;;;;;;;;;;;;;;;20.60;59.93;99299.31;4923590;28;119900;-62
2023/10/21 12:02:26;;;;;;;;;;;;;;;20.61;59.39;99309.06;4897368;28;124139;-62
2023/10/21 12:07:33;;;;;;;;;;;;;;;20.48;59.17;99314.13;4915434;28;119148;-62
2023/10/21 12:10:44;;;;;;;;;;;;;;;20.46;59.18;99313.44;4929039;28;125084;-62
2023/10/21 12:19:17;;;;;;;;;;;;;;;20.34;59.28;99327.25;4931032;28;119916;-62
2023/10/21 12:43:36;;;;;;;;;;;;;;;19.90;58.90;99327.56;4925612;28;124480;-63
2023/10/21 12:46:18;;;;;;;;;;;;;;;19.91;59.13;99323.88;4923329;28;124083;-63
2023/10/21 12:48:51;;;;;;;;;;;;;;;19.97;59.19;99323.22;4930127;28;119805;-62
2023/10/21 12:51:24;;;;;;;;;;;;;;;20.03;59.30;99321.69;4930897;28;119125;-63
2023/10/21 12:53:51;;;;;;;;;;;;;;;20.10;59.23;99311.09;4928257;28;124331;-62
2023/10/21 12:56:38;;;;;;;;;;;;;;;20.15;59.12;99316.81;4939321;28;123144;-63
2023/10/21 12:59:31;;;;;;;;;;;;;;;20.18;59.13;99319.19;4928899;28;119764;-63
2023/10/21 13:01:58;;;;;;;;;;;;;;;20.21;59.01;99329.56;4928304;28;117932;-63
2023/10/21 13:04:27;;;;;;;;;;;;;;;20.22;58.74;99320.53;4917080;28;124228;-63
2023/10/21 13:06:56;;;;;;;;;;;;;;;20.23;58.70;99322.22;4923204;28;124438;-63
2023/10/21 13:09:28;;;;;;;;;;;;;;;20.28;58.99;99325.22;4920418;28;120473;-62
2023/10/21 13:12:00;;;;;;;;;;;;;;;20.34;58.99;99329.94;4921551;28;120553;-62
2023/10/21 13:14:28;;;;;;;;;;;;;;;20.39;58.75;99327.56;4919887;28;124863;-62
2023/10/21 13:16:59;;;;;;;;;;;;;;;20.45;58.80;99325.19;4933467;28;123179;-63
2023/10/21 13:19:26;;;;;;;;;;;;;;;20.49;58.83;99321.16;4919736;28;119785;-63